Centennial Airport Denver US
ICAO: KAPA
IATA: APA
Category: Medium
Scheduled Services: No

Elevation: 5885 ft
TransAlt. 18000 ft.

Airport Communications:
DENVER APP/DEP:132.75
ATIS:120.3
CLNC DEL:128.6
GND:121.8
DENVER RDO:122.2
TWR:118.9
UNICOM:122.95

KAPA Zoom In..

If Map Doesn't Load, Click Here

Runways:

(A) RW 10 length 4800 ft width 75 ft
---- / hdg 100

(B) RW 17L length 10001 ft width 100 ft
---- / hdg 167

(C) RW 17R length 7000 ft width 77 ft
---- / hdg 167

(D) RW 28 length 4800 ft width 75 ft
---- / hdg 280

(E) RW 35L length 7000 ft width 77 ft
---- / hdg 347

(F) RW 35R length 10001 ft width 100 ft
ILS 111.30 / hdg 347

Location; KAPA
Day. 23 / Time. 20.53 Zulu
* Altimeter: 29.97
* Temperature: 29° c. 84.2°f.
* Wind from: VRB° Speed 03 kn.
Dewpoint: -03° c.
Visibility: 10 Statute Miles.
Clouds: Few 14000 ft.

KAPA 232053Z VRB03KT 10SM FEW140 29/M03 A2997 RMK AO2 SLP072 T02891028 58033


Wind From VRB°
Speed 03 kn.

 
 
jpsmedia.com for Web Design worldairports.se 2018   terms of use